createdAt,value
2018-04-26T00:00:24.143Z,100655.52
2018-04-26T00:02:49.901Z,100654.29
2018-04-26T00:05:15.677Z,100654.89
2018-04-26T00:07:41.421Z,100651.68
2018-04-26T00:10:07.199Z,100655.59
2018-04-26T00:12:32.932Z,100654.34
2018-04-26T00:14:58.708Z,100652.80
2018-04-26T00:17:24.520Z,100641.70
2018-04-26T00:19:50.335Z,100640.95
2018-04-26T00:22:16.096Z,100640.77
2018-04-26T00:24:41.901Z,100640.42
2018-04-26T00:27:07.734Z,100642.80
2018-04-26T00:29:33.509Z,100642.80
2018-04-26T00:31:59.264Z,100638.80
2018-04-26T00:34:25.036Z,100636.27
2018-04-26T00:36:50.804Z,100632.12
2018-04-26T00:39:16.599Z,100634.50
2018-04-26T00:41:42.359Z,100629.87
2018-04-26T00:44:08.123Z,100631.23
2018-04-26T00:46:33.892Z,100629.98
2018-04-26T00:48:59.639Z,100629.14
2018-04-26T00:51:37.831Z,100628.58
2018-04-26T00:54:03.579Z,100625.59
2018-04-26T00:56:29.344Z,100620.95
2018-04-26T00:58:55.091Z,100617.45
2018-04-26T01:01:20.871Z,100622.12
2018-04-26T01:03:46.620Z,100629.54
2018-04-26T01:06:12.411Z,100628.98
2018-04-26T01:08:38.163Z,100633.37
2018-04-26T01:11:03.945Z,100633.78
2018-04-26T01:13:29.689Z,100648.75
2018-04-26T01:15:55.504Z,100639.47
2018-04-26T01:18:21.259Z,100646.28
2018-04-26T01:20:47.032Z,100638.07
2018-04-26T01:23:12.787Z,100640.95
2018-04-26T01:25:38.576Z,100644.34
2018-04-26T01:28:04.332Z,100645.50
2018-04-26T01:30:30.188Z,100649.05
2018-04-26T01:32:55.939Z,100650.55
2018-04-26T01:35:21.720Z,100651.95
2018-04-26T01:37:47.491Z,100651.06
2018-04-26T01:40:13.251Z,100647.98
2018-04-26T01:42:38.995Z,100643.13
2018-04-26T01:45:04.788Z,100640.97
2018-04-26T01:47:30.612Z,100641.34
2018-04-26T01:49:56.352Z,100626.72
2018-04-26T01:52:22.142Z,100625.81
2018-04-26T01:54:47.900Z,100618.95
2018-04-26T01:57:13.688Z,100618.15
2018-04-26T01:59:39.447Z,100611.94
2018-04-26T02:02:05.266Z,100602.94
2018-04-26T02:04:31.011Z,100599.54
2018-04-26T02:06:56.837Z,100601.02
2018-04-26T02:09:22.615Z,100605.11
2018-04-26T02:11:48.536Z,100609.59
2018-04-26T02:14:14.316Z,100604.34
2018-04-26T02:16:40.082Z,100603.72
2018-04-26T02:19:06.109Z,100600.16
2018-04-26T02:21:31.871Z,100592.38
2018-04-26T02:23:57.627Z,100594.09
2018-04-26T02:26:23.413Z,100587.76
2018-04-26T02:28:49.207Z,100584.59
2018-04-26T02:31:14.980Z,100582.53
2018-04-26T02:33:40.743Z,100575.02
2018-04-26T02:36:06.501Z,100576.08
2018-04-26T02:38:32.309Z,100578.22
2018-04-26T02:40:58.065Z,100586.67
2018-04-26T02:43:23.815Z,100583.17
2018-04-26T02:45:49.603Z,100580.61
2018-04-26T02:48:15.392Z,100585.31
2018-04-26T02:50:41.148Z,100578.16
2018-04-26T02:53:06.939Z,100582.22
2018-04-26T02:55:32.727Z,100573.91
2018-04-26T02:57:58.558Z,100577.41
2018-04-26T03:00:24.380Z,100571.43
2018-04-26T03:02:50.167Z,100580.75
2018-04-26T03:05:16.010Z,100578.69
2018-04-26T03:07:41.897Z,100583.97
2018-04-26T03:10:07.652Z,100584.39
2018-04-26T03:12:33.428Z,100586.95
2018-04-26T03:14:59.189Z,100579.37
2018-04-26T03:17:24.976Z,100577.82
2018-04-26T03:19:50.731Z,100577.88
2018-04-26T03:22:16.537Z,100580.02
2018-04-26T03:24:42.283Z,100576.85
2018-04-26T03:27:08.048Z,100587.78
2018-04-26T03:29:33.795Z,100578.88
2018-04-26T03:31:59.596Z,100576.33
2018-04-26T03:34:25.358Z,100575.99
2018-04-26T03:36:51.119Z,100574.69
2018-04-26T03:39:16.902Z,100574.57
2018-04-26T03:41:42.655Z,100563.67
2018-04-26T03:44:08.407Z,100565.42
2018-04-26T03:46:34.169Z,100569.73
2018-04-26T03:49:00.108Z,100567.95
2018-04-26T03:51:25.926Z,100565.00
2018-04-26T03:53:51.745Z,100563.03
2018-04-26T03:56:17.494Z,100571.29
2018-04-26T03:58:43.299Z,100564.30
2018-04-26T04:04:23.860Z,100568.12
2018-04-26T04:06:49.631Z,100573.27
2018-04-26T04:09:15.412Z,100573.01
2018-04-26T04:11:41.159Z,100564.69
2018-04-26T04:14:06.935Z,100577.77
2018-04-26T04:16:32.687Z,100571.09
2018-04-26T04:18:58.487Z,100579.49
2018-04-26T04:21:24.236Z,100583.33
2018-04-26T04:23:50.016Z,100578.94
2018-04-26T04:26:15.783Z,100579.20
2018-04-26T04:28:41.555Z,100583.55
2018-04-26T04:31:07.308Z,100584.41
2018-04-26T04:33:33.075Z,100584.83
2018-04-26T04:35:58.900Z,100587.44
2018-04-26T04:38:24.718Z,100596.14
2018-04-26T04:40:50.471Z,100588.72
2018-04-26T04:43:16.262Z,100600.15
2018-04-26T04:45:42.012Z,100592.79
2018-04-26T04:48:07.821Z,100605.42
2018-04-26T04:50:33.571Z,100600.49
2018-04-26T04:52:59.343Z,100600.71
2018-04-26T04:55:25.088Z,100603.38
2018-04-26T04:57:50.882Z,100600.49
2018-04-26T05:00:16.706Z,100607.25
2018-04-26T05:02:42.443Z,100603.23
2018-04-26T05:05:08.218Z,100605.88
2018-04-26T05:07:33.971Z,100610.44
2018-04-26T05:09:59.748Z,100612.47
2018-04-26T05:12:25.492Z,100622.63
2018-04-26T05:14:51.249Z,100621.28
2018-04-26T05:17:17.031Z,100619.05
2018-04-26T05:19:42.957Z,100626.70
2018-04-26T05:22:08.639Z,100624.84
2018-04-26T05:24:34.459Z,100623.85
2018-04-26T05:27:00.486Z,100619.99
2018-04-26T05:29:26.312Z,100621.33
2018-04-26T05:31:52.110Z,100625.35
2018-04-26T05:34:17.887Z,100629.50
2018-04-26T05:36:43.888Z,100632.61
2018-04-26T05:39:09.651Z,100629.84
2018-04-26T05:41:35.447Z,100635.49
2018-04-26T05:44:01.243Z,100628.67
2018-04-26T05:46:27.260Z,100629.14
2018-04-26T05:48:53.038Z,100634.38
2018-04-26T05:51:18.856Z,100633.14
2018-04-26T05:53:44.644Z,100634.66
2018-04-26T05:56:10.394Z,100640.23
2018-04-26T05:58:36.218Z,100641.81
2018-04-26T06:01:01.994Z,100643.34
2018-04-26T06:03:27.771Z,100641.56
2018-04-26T06:05:53.591Z,100647.77
2018-04-26T06:08:19.363Z,100652.08
2018-04-26T06:10:45.185Z,100657.37
2018-04-26T06:13:10.961Z,100652.10
2018-04-26T06:15:36.867Z,100654.56
2018-04-26T06:18:02.639Z,100657.68
2018-04-26T06:20:28.424Z,100656.77
2018-04-26T06:22:54.187Z,100659.24
2018-04-26T06:25:19.983Z,100658.27
2018-04-26T06:27:45.731Z,100669.73
2018-04-26T06:30:11.532Z,100671.35
2018-04-26T06:32:37.303Z,100665.98
2018-04-26T06:35:03.087Z,100674.86
2018-04-26T06:37:28.874Z,100680.22
2018-04-26T06:39:54.624Z,100677.67
2018-04-26T06:42:20.474Z,100675.84
2018-04-26T06:44:46.155Z,100685.31
2018-04-26T06:47:11.940Z,100686.07
2018-04-26T06:49:37.744Z,100687.59
2018-04-26T06:52:03.509Z,100685.09
2018-04-26T06:54:29.603Z,100684.13
2018-04-26T06:56:55.428Z,100695.02
2018-04-26T06:59:21.173Z,100692.02
2018-04-26T07:01:46.943Z,100690.92
2018-04-26T07:04:12.699Z,100705.57
2018-04-26T07:06:38.500Z,100703.83
2018-04-26T07:09:04.276Z,100705.25
2018-04-26T07:11:30.289Z,100713.41
2018-04-26T07:13:56.055Z,100703.98
2018-04-26T07:16:21.815Z,100713.31
2018-04-26T07:18:47.573Z,100704.10
2018-04-26T07:21:13.351Z,100713.02
2018-04-26T07:23:39.107Z,100716.64
2018-04-26T07:26:04.912Z,100719.17
2018-04-26T07:28:30.699Z,100713.59
2018-04-26T07:30:56.470Z,100719.28
2018-04-26T07:33:22.227Z,100720.84
2018-04-26T07:35:48.017Z,100715.09
2018-04-26T07:38:13.786Z,100717.34
2018-04-26T07:40:39.564Z,100716.78
2018-04-26T07:43:05.351Z,100718.07
2018-04-26T07:45:31.111Z,100725.09
2018-04-26T07:47:56.875Z,100722.95
2018-04-26T07:50:22.639Z,100717.36
2018-04-26T07:52:48.429Z,100716.66
2018-04-26T07:55:14.186Z,100720.41
2018-04-26T07:57:40.204Z,100728.78
2018-04-26T08:00:06.018Z,100723.88
2018-04-26T08:02:31.810Z,100726.05
2018-04-26T08:04:57.571Z,100724.16
2018-04-26T08:07:23.327Z,100727.52
2018-04-26T08:09:49.091Z,100735.70
2018-04-26T08:12:14.868Z,100739.57
2018-04-26T08:14:40.624Z,100732.47
2018-04-26T08:17:06.404Z,100738.03
2018-04-26T08:19:32.172Z,100751.00
2018-04-26T08:21:57.951Z,100753.98
2018-04-26T08:24:23.709Z,100744.43
2018-04-26T08:26:49.482Z,100748.36
2018-04-26T08:29:15.255Z,100761.56
2018-04-26T08:31:41.025Z,100760.81
2018-04-26T08:34:06.767Z,100762.46
2018-04-26T08:36:32.563Z,100768.07
2018-04-26T08:38:58.364Z,100773.63
2018-04-26T08:41:24.148Z,100775.28
2018-04-26T08:43:49.916Z,100780.07
2018-04-26T08:46:15.673Z,100774.80
2018-04-26T08:48:41.415Z,100777.77
2018-04-26T08:51:07.292Z,100784.66
2018-04-26T08:53:33.063Z,100782.17
2018-04-26T08:55:58.815Z,100787.47
2018-04-26T08:58:24.648Z,100784.70
2018-04-26T09:00:50.435Z,100790.38
2018-04-26T09:03:16.220Z,100794.72
2018-04-26T09:05:41.967Z,100787.08
2018-04-26T09:08:07.745Z,100792.82
2018-04-26T09:10:33.479Z,100790.99
2018-04-26T09:12:59.256Z,100793.20
2018-04-26T09:15:25.020Z,100790.48
2018-04-26T09:17:50.799Z,100793.50
2018-04-26T09:20:16.614Z,100787.30
2018-04-26T09:22:42.389Z,100792.45
2018-04-26T09:25:08.175Z,100786.37
2018-04-26T09:27:33.951Z,100785.41
2018-04-26T09:30:00.061Z,100782.17
2018-04-26T09:32:25.752Z,100786.93
2018-04-26T09:34:51.503Z,100794.88
2018-04-26T09:37:17.266Z,100797.14
2018-04-26T09:39:43.070Z,100791.52
2018-04-26T09:42:08.878Z,100798.48
2018-04-26T09:44:34.644Z,100793.79
2018-04-26T09:47:00.440Z,100797.60
2018-04-26T09:49:26.192Z,100798.98
2018-04-26T09:51:51.966Z,100807.55
2018-04-26T09:54:17.715Z,100794.13
2018-04-26T09:56:43.673Z,100799.27
2018-04-26T09:59:09.438Z,100797.66
2018-04-26T10:01:35.220Z,100798.67
2018-04-26T10:04:07.136Z,100808.73
2018-04-26T10:06:32.931Z,100801.62
2018-04-26T10:08:58.730Z,100803.90
2018-04-26T10:11:24.495Z,100801.25
2018-04-26T10:13:50.268Z,100804.82
2018-04-26T10:16:16.027Z,100806.63
2018-04-26T10:18:41.892Z,100809.11
2018-04-26T10:21:07.645Z,100819.70
2018-04-26T10:23:33.431Z,100814.46
2018-04-26T10:25:59.284Z,100822.80
2018-04-26T10:28:25.055Z,100816.47
2018-04-26T10:30:50.827Z,100820.68
2018-04-26T10:33:16.626Z,100827.31
2018-04-26T10:35:42.388Z,100825.49
2018-04-26T10:38:08.162Z,100832.83
2018-04-26T10:40:33.911Z,100840.70
2018-04-26T10:42:59.695Z,100840.72
2018-04-26T10:45:25.483Z,100840.09
2018-04-26T10:47:51.254Z,100831.05
2018-04-26T10:50:17.016Z,100837.41
2018-04-26T10:52:42.843Z,100842.14
2018-04-26T10:55:08.591Z,100846.18
2018-04-26T10:57:34.414Z,100849.03
2018-04-26T11:00:00.219Z,100850.93
2018-04-26T11:02:25.959Z,100848.11
2018-04-26T11:04:52.020Z,100848.26
2018-04-26T11:07:17.808Z,100853.34
2018-04-26T11:09:43.583Z,100861.79
2018-04-26T11:12:09.359Z,100847.47
2018-04-26T11:14:35.107Z,100852.59
2018-04-26T11:17:00.923Z,100861.38
2018-04-26T11:19:26.724Z,100853.23
2018-04-26T11:21:52.499Z,100853.72
2018-04-26T11:24:18.313Z,100862.98
2018-04-26T11:26:44.098Z,100863.14
2018-04-26T11:29:09.860Z,100863.72
2018-04-26T11:31:35.644Z,100878.98
2018-04-26T11:34:01.413Z,100867.78
2018-04-26T11:36:27.178Z,100874.65
2018-04-26T11:38:52.962Z,100866.75
2018-04-26T11:41:18.738Z,100866.97
2018-04-26T11:43:44.480Z,100870.87
2018-04-26T11:46:10.236Z,100867.61
2018-04-26T11:48:36.004Z,100861.37
2018-04-26T11:51:01.780Z,100855.92
2018-04-26T11:53:27.600Z,100854.86
2018-04-26T11:55:53.354Z,100860.32
2018-04-26T11:58:19.238Z,100860.66
2018-04-26T12:00:45.062Z,100854.88
2018-04-26T12:03:11.160Z,100864.82
2018-04-26T12:05:36.944Z,100858.48
2018-04-26T12:08:02.798Z,100864.57
2018-04-26T12:10:28.624Z,100860.08
2018-04-26T12:12:54.396Z,100860.03
2018-04-26T12:15:20.150Z,100859.94
2018-04-26T12:17:45.931Z,100867.81
2018-04-26T12:20:11.946Z,100866.53
2018-04-26T12:22:37.697Z,100877.33
2018-04-26T12:25:03.491Z,100891.56
2018-04-26T12:27:29.247Z,100889.47
2018-04-26T12:29:55.326Z,100898.84
2018-04-26T12:32:21.091Z,100905.91
2018-04-26T12:34:46.876Z,100933.62
2018-04-26T12:37:12.639Z,100939.70
2018-04-26T12:39:38.427Z,100948.58
2018-04-26T12:42:04.290Z,100932.91
2018-04-26T12:44:29.991Z,100931.64
2018-04-26T12:46:55.758Z,100925.98
2018-04-26T12:49:21.538Z,100918.47
2018-04-26T12:51:47.307Z,100918.22
2018-04-26T12:54:13.259Z,100922.03
2018-04-26T12:56:39.054Z,100924.38
2018-04-26T12:59:04.965Z,100924.27
2018-04-26T13:01:30.975Z,100916.16
2018-04-26T13:03:56.743Z,100924.39
2018-04-26T13:06:22.617Z,100924.61
2018-04-26T13:08:48.391Z,100928.67
2018-04-26T13:11:14.165Z,100937.58
2018-04-26T13:13:39.951Z,100946.74
2018-04-26T13:16:05.715Z,100958.97
2018-04-26T13:18:31.505Z,100989.25
2018-04-26T13:20:57.271Z,100973.97
2018-04-26T13:23:23.168Z,100995.02
2018-04-26T13:25:49.003Z,100994.00
2018-04-26T13:28:14.790Z,100993.91
2018-04-26T13:30:40.570Z,100999.08
2018-04-26T13:33:06.336Z,100995.36
2018-04-26T13:35:32.141Z,100992.58
2018-04-26T13:37:58.348Z,100986.67
2018-04-26T13:40:24.470Z,100976.67
2018-04-26T13:42:50.244Z,100973.08
2018-04-26T13:45:15.991Z,100972.16
2018-04-26T13:47:41.764Z,100982.17
2018-04-26T13:50:07.547Z,100983.11
2018-04-26T13:52:33.335Z,100982.64
2018-04-26T13:54:59.102Z,100991.22
2018-04-26T13:57:24.889Z,100992.97
2018-04-26T13:59:50.701Z,100995.52
2018-04-26T14:02:16.487Z,100995.50
2018-04-26T14:04:42.223Z,101001.34
2018-04-26T14:07:08.015Z,101001.58
2018-04-26T14:09:33.949Z,100998.48
2018-04-26T14:11:59.899Z,101000.58
2018-04-26T14:14:25.682Z,101001.09
2018-04-26T14:16:51.495Z,100993.67
2018-04-26T14:19:17.263Z,100988.61
2018-04-26T14:21:43.077Z,100996.09
2018-04-26T14:24:08.888Z,100999.82
2018-04-26T14:26:34.668Z,100985.04
2018-04-26T14:29:00.469Z,100988.73
2018-04-26T14:31:26.316Z,100991.41
2018-04-26T14:33:52.109Z,100992.33
2018-04-26T14:36:17.876Z,100996.45
2018-04-26T14:38:43.664Z,100987.58
2018-04-26T14:41:09.576Z,100981.70
2018-04-26T14:43:35.388Z,100982.55
2018-04-26T14:46:01.131Z,100978.72
2018-04-26T14:48:26.900Z,100977.19
2018-04-26T14:50:52.698Z,100980.17
2018-04-26T14:53:18.460Z,100981.94
2018-04-26T14:55:44.232Z,100982.53
2018-04-26T14:58:10.363Z,100987.84
2018-04-26T15:00:36.139Z,100993.64
2018-04-26T15:03:01.920Z,100993.36
2018-04-26T15:05:27.716Z,100993.96
2018-04-26T15:07:53.478Z,100990.46
2018-04-26T15:10:19.226Z,100986.59
2018-04-26T15:12:44.994Z,100977.72
2018-04-26T15:15:10.752Z,100977.30
2018-04-26T15:17:36.523Z,100984.84
2018-04-26T15:20:02.310Z,100973.83
2018-04-26T15:22:28.088Z,100976.32
2018-04-26T15:24:53.831Z,100971.60
2018-04-26T15:27:19.633Z,100966.52
2018-04-26T15:29:45.391Z,100957.46
2018-04-26T15:32:11.155Z,100958.11
2018-04-26T15:34:36.904Z,100963.45
2018-04-26T15:37:02.698Z,100962.38
2018-04-26T15:39:28.440Z,100969.63
2018-04-26T15:41:54.199Z,100969.08
2018-04-26T15:44:19.987Z,100972.39
2018-04-26T15:46:46.128Z,100970.27
2018-04-26T15:49:11.889Z,100974.84
2018-04-26T15:51:37.719Z,100984.92
2018-04-26T15:54:15.687Z,100984.50
2018-04-26T15:56:54.076Z,100975.47
2018-04-26T15:59:32.262Z,100972.92
2018-04-26T16:02:25.229Z,100981.15
2018-04-26T16:05:03.338Z,100987.84
2018-04-26T16:11:05.968Z,100986.70
2018-04-26T16:13:50.238Z,100985.56
2018-04-26T16:16:34.410Z,100992.73
2018-04-26T16:19:18.663Z,100996.27
2018-04-26T16:21:56.775Z,100997.91
2018-04-26T16:27:43.510Z,101002.50
2018-04-26T16:30:21.727Z,101003.36
2018-04-26T16:33:04.944Z,101013.05
2018-04-26T16:35:42.870Z,101027.95
2018-04-26T16:38:21.062Z,101020.37
2018-04-26T16:40:46.820Z,101033.09
2018-04-26T16:43:13.688Z,101020.00
2018-04-26T16:45:39.488Z,101014.84
2018-04-26T16:48:05.260Z,101015.94
2018-04-26T16:50:31.023Z,101024.70
2018-04-26T16:52:56.796Z,101022.87
2018-04-26T16:55:22.557Z,101029.24
2018-04-26T16:57:48.614Z,101029.25
2018-04-26T17:00:14.371Z,101025.73
2018-04-26T17:02:40.139Z,101025.48
2018-04-26T17:05:05.888Z,101022.77
2018-04-26T17:07:31.675Z,101020.89
2018-04-26T17:09:57.431Z,101026.36
2018-04-26T17:12:23.199Z,101024.23
2018-04-26T17:14:48.993Z,101033.08
2018-04-26T17:17:14.771Z,101038.42
2018-04-26T17:19:40.739Z,101031.97
2018-04-26T17:22:06.638Z,101047.61
2018-04-26T17:24:32.442Z,101045.12
2018-04-26T17:26:58.195Z,101044.30
2018-04-26T17:29:30.851Z,101057.30
2018-04-26T17:31:56.615Z,101054.13
2018-04-26T17:34:22.390Z,101061.94
2018-04-26T17:36:48.193Z,101063.10
2018-04-26T17:39:13.963Z,101070.38
2018-04-26T17:41:39.727Z,101065.47
2018-04-26T17:44:05.519Z,101067.20
2018-04-26T17:46:31.280Z,101072.99
2018-04-26T17:48:57.051Z,101072.28
2018-04-26T17:51:22.863Z,101076.63
2018-04-26T17:53:48.651Z,101076.95
2018-04-26T17:56:14.392Z,101081.97
2018-04-26T17:58:40.360Z,101082.99
2018-04-26T18:01:06.115Z,101083.70
2018-04-26T18:03:31.951Z,101094.36
2018-04-26T18:05:57.743Z,101118.58
2018-04-26T18:08:24.008Z,101120.98
2018-04-26T18:10:49.775Z,101111.04
2018-04-26T18:13:15.544Z,101118.28
2018-04-26T18:15:41.292Z,101112.17
2018-04-26T18:18:07.088Z,101119.83
2018-04-26T18:20:32.835Z,101122.58
2018-04-26T18:22:58.879Z,101116.58
2018-04-26T18:25:24.651Z,101116.77
2018-04-26T18:27:50.394Z,101121.11
2018-04-26T18:30:16.171Z,101127.11
2018-04-26T18:32:41.924Z,101128.77
2018-04-26T18:35:07.714Z,101127.39
2018-04-26T18:37:33.468Z,101134.39
2018-04-26T18:39:59.292Z,101136.41
2018-04-26T18:42:25.075Z,101143.81
2018-04-26T18:44:50.823Z,101143.77
2018-04-26T18:47:16.604Z,101151.22
2018-04-26T18:49:42.349Z,101154.11
2018-04-26T18:52:08.168Z,101154.39
2018-04-26T18:54:34.222Z,101161.94
2018-04-26T18:57:00.163Z,101170.34
2018-04-26T18:59:25.909Z,101169.27
2018-04-26T19:01:51.673Z,101177.31
2018-04-26T19:04:17.459Z,101173.76
2018-04-26T19:06:43.219Z,101173.88
2018-04-26T19:09:08.989Z,101178.64
2018-04-26T19:11:34.780Z,101184.48
2018-04-26T19:14:00.540Z,101189.95
2018-04-26T19:16:26.303Z,101194.30
2018-04-26T19:18:52.076Z,101187.22
2018-04-26T19:21:17.900Z,101191.55
2018-04-26T19:23:43.663Z,101192.63
2018-04-26T19:26:09.413Z,101193.21
2018-04-26T19:28:35.223Z,101205.45
2018-04-26T19:31:00.988Z,101192.91
2018-04-26T19:33:26.734Z,101200.13
2018-04-26T19:35:52.509Z,101194.19
2018-04-26T19:38:18.295Z,101198.98
2018-04-26T19:40:44.044Z,101200.73
2018-04-26T19:43:09.831Z,101193.24
2018-04-26T19:45:35.591Z,101197.19
2018-04-26T19:48:01.360Z,101192.18
2018-04-26T19:50:27.187Z,101197.67
2018-04-26T19:52:53.304Z,101193.33
2018-04-26T19:55:19.160Z,101196.47
2018-04-26T19:57:44.973Z,101198.63
2018-04-26T20:00:10.682Z,101196.73
2018-04-26T20:02:36.447Z,101198.63
2018-04-26T20:05:02.234Z,101195.77
2018-04-26T20:07:27.983Z,101187.68
2018-04-26T20:09:53.731Z,101183.85
2018-04-26T20:12:19.504Z,101178.88
2018-04-26T20:14:45.394Z,101181.28
2018-04-26T20:17:11.168Z,101182.86
2018-04-26T20:19:36.927Z,101182.19
2018-04-26T20:22:02.763Z,101193.23
2018-04-26T20:24:28.543Z,101186.87
2018-04-26T20:26:54.288Z,101185.48
2018-04-26T20:29:20.128Z,101183.21
2018-04-26T20:31:45.907Z,101187.09
2018-04-26T20:34:11.662Z,101183.70
2018-04-26T20:36:37.439Z,101178.65
2018-04-26T20:39:03.238Z,101188.30
2018-04-26T20:41:37.315Z,101184.39
2018-04-26T20:44:03.139Z,101176.77
2018-04-26T20:46:28.906Z,101180.76
2018-04-26T20:48:54.688Z,101182.16
2018-04-26T20:51:20.484Z,101173.34
2018-04-26T20:53:46.235Z,101184.34
2018-04-26T20:56:12.014Z,101183.53
2018-04-26T20:58:37.792Z,101186.08
2018-04-26T21:01:03.568Z,101187.22
2018-04-26T21:03:29.319Z,101182.95
2018-04-26T21:05:55.112Z,101178.28
2018-04-26T21:08:20.902Z,101177.34
2018-04-26T21:10:46.692Z,101175.24
2018-04-26T21:13:12.463Z,101169.17
2018-04-26T21:15:38.209Z,101172.58
2018-04-26T21:18:03.986Z,101174.66
2018-04-26T21:20:29.804Z,101178.11
2018-04-26T21:22:55.617Z,101179.62
2018-04-26T21:25:21.421Z,101179.71
2018-04-26T21:27:47.188Z,101178.06
2018-04-26T21:30:12.953Z,101175.49
2018-04-26T21:32:38.724Z,101173.72
2018-04-26T21:35:04.471Z,101171.16
2018-04-26T21:37:30.229Z,101174.41
2018-04-26T21:39:55.973Z,101169.47
2018-04-26T21:42:21.749Z,101174.19
2018-04-26T21:44:47.527Z,101176.20
2018-04-26T21:47:13.287Z,101181.02
2018-04-26T21:49:39.035Z,101182.11
2018-04-26T21:52:10.913Z,101183.67
2018-04-26T21:54:42.991Z,101186.53
2018-04-26T21:57:14.988Z,101183.58
2018-04-26T21:59:46.884Z,101191.80
2018-04-26T22:02:18.746Z,101190.12
2018-04-26T22:07:49.920Z,101188.89
2018-04-26T22:10:15.659Z,101194.38
2018-04-26T22:12:41.704Z,101198.05
2018-04-26T22:15:07.457Z,101197.70
2018-04-26T22:17:34.930Z,101197.14
2018-04-26T22:20:00.779Z,101197.14
2018-04-26T22:22:26.591Z,101201.61
2018-04-26T22:24:53.935Z,101202.45
2018-04-26T22:27:19.759Z,101201.05
2018-04-26T22:29:45.511Z,101201.21
2018-04-26T22:32:11.682Z,101203.98
2018-04-26T22:34:37.443Z,101205.45
2018-04-26T22:37:03.207Z,101207.31
2018-04-26T22:39:29.004Z,101205.83
2018-04-26T22:41:54.756Z,101201.70
2018-04-26T22:44:20.514Z,101202.70
2018-04-26T22:46:46.279Z,101197.41
2018-04-26T22:49:12.056Z,101194.91
2018-04-26T22:51:37.844Z,101195.95
2018-04-26T22:54:03.868Z,101193.47
2018-04-26T22:56:29.627Z,101197.73
2018-04-26T22:58:55.588Z,101189.59
2018-04-26T23:01:21.375Z,101191.58
2018-04-26T23:03:47.112Z,101193.93
2018-04-26T23:06:27.833Z,101192.67
2018-04-26T23:08:53.624Z,101187.70
2018-04-26T23:11:19.366Z,101195.11
2018-04-26T23:13:45.139Z,101192.46
2018-04-26T23:16:10.887Z,101190.36
2018-04-26T23:18:36.651Z,101187.36
2018-04-26T23:21:02.422Z,101187.28
2018-04-26T23:23:28.199Z,101189.84
2018-04-26T23:25:53.943Z,101181.20
2018-04-26T23:28:19.723Z,101183.31
2018-04-26T23:30:45.480Z,101180.87
2018-04-26T23:33:11.261Z,101177.91
2018-04-26T23:35:37.011Z,101179.30
2018-04-26T23:38:02.796Z,101178.68
2018-04-26T23:40:28.564Z,101173.00
2018-04-26T23:42:54.362Z,101173.45
2018-04-26T23:45:20.103Z,101175.39
2018-04-26T23:47:45.898Z,101175.97
2018-04-26T23:50:11.652Z,101179.94
2018-04-26T23:52:37.455Z,101173.02
2018-04-26T23:55:03.223Z,101174.41
2018-04-26T23:57:29.200Z,101174.06
2018-04-26T23:59:54.965Z,101176.13
